Time;durP1;ratioP1;P1;durP2;ratioP2;P2;SDS_P1;SDS_P2;PMS_P1;PMS_P2;Temp;Humidity;BMP_temperature;BMP_pressure;BME280_temperature;BME280_humidity;BME280_pressure;Samples;Min_cycle;Max_cycle;Signal;HPM_P1;HPM_P2
2021/04/07 00:00:34;;;;;;;0.63;0.50;;;11.80;71.80;;;;;;5115351;28;20476;-40
2021/04/07 00:03:02;;;;;;;1.42;0.65;;;11.80;71.80;;;;;;5112739;28;20100;-41
2021/04/07 00:05:30;;;;;;;0.60;0.50;;;11.80;71.80;;;;;;5114721;28;20051;-42
2021/04/07 00:07:56;;;;;;;1.15;0.70;;;11.80;71.80;;;;;;5111887;28;20445;-42
2021/04/07 00:10:25;;;;;;;0.98;0.70;;;11.70;71.80;;;;;;5114343;28;20089;-43
2021/04/07 00:12:51;;;;;;;1.08;0.60;;;11.80;71.80;;;;;;5114043;28;20399;-39
2021/04/07 00:15:21;;;;;;;0.93;0.50;;;11.80;71.80;;;;;;5115145;28;20130;-43
2021/04/07 00:17:47;;;;;;;1.50;0.60;;;11.80;71.80;;;;;;5114855;28;20088;-43
2021/04/07 00:20:18;;;;;;;0.95;0.60;;;11.70;71.80;;;;;;5113848;28;20551;-43
2021/04/07 00:22:44;;;;;;;1.10;0.47;;;11.80;71.80;;;;;;5114503;28;20055;-41
2021/04/07 00:25:11;;;;;;;0.60;0.60;;;11.80;71.80;;;;;;5114559;28;20055;-43
2021/04/07 00:27:40;;;;;;;0.90;0.60;;;11.80;71.80;;;;;;5114597;28;20039;-42
2021/04/07 00:30:07;;;;;;;0.80;0.50;;;11.80;71.80;;;;;;5113955;28;20047;-45
2021/04/07 00:32:32;;;;;;;1.50;0.57;;;11.70;71.80;;;;;;5114564;28;20119;-44
2021/04/07 00:34:58;;;;;;;1.98;0.60;;;11.70;71.80;;;;;;5113765;28;20130;-42
2021/04/07 00:37:24;;;;;;;1.05;0.55;;;11.70;71.80;;;;;;5113799;28;20043;-45
2021/04/07 00:39:51;;;;;;;0.90;0.70;;;11.70;71.80;;;;;;5114325;28;20055;-41
2021/04/07 00:42:17;;;;;;;0.60;0.50;;;11.70;71.80;;;;;;5113960;28;20100;-46
2021/04/07 00:44:43;;;;;;;1.95;0.65;;;11.70;71.80;;;;;;5113650;28;20479;-41
2021/04/07 00:47:10;;;;;;;1.10;0.60;;;11.70;71.80;;;;;;5114283;28;20062;-43
2021/04/07 00:49:35;;;;;;;0.90;0.60;;;11.70;71.80;;;;;;5111385;28;20100;-42
2021/04/07 00:52:01;;;;;;;1.92;0.60;;;11.70;71.80;;;;;;5112532;28;20051;-42
2021/04/07 00:54:27;;;;;;;1.95;0.68;;;11.80;71.80;;;;;;5113822;28;20048;-40
2021/04/07 00:56:53;;;;;;;0.90;0.80;;;11.70;71.80;;;;;;5113568;28;20047;-42
2021/04/07 00:59:21;;;;;;;0.68;0.50;;;11.70;71.80;;;;;;5113713;28;20585;-41
2021/04/07 01:01:47;;;;;;;1.38;0.70;;;11.70;71.80;;;;;;5113777;28;20036;-43
2021/04/07 01:04:13;;;;;;;0.85;0.73;;;11.70;71.80;;;;;;5113451;28;20043;-46
2021/04/07 01:06:41;;;;;;;1.83;0.73;;;11.70;71.80;;;;;;5113235;28;20047;-40
2021/04/07 01:09:08;;;;;;;1.23;0.80;;;11.70;71.80;;;;;;5113428;28;20047;-45
2021/04/07 01:11:34;;;;;;;0.50;0.45;;;11.70;71.80;;;;;;5113575;28;20083;-44
2021/04/07 01:14:01;;;;;;;0.85;0.63;;;11.70;71.80;;;;;;5113302;28;20063;-44
2021/04/07 01:16:27;;;;;;;1.08;0.63;;;11.70;71.90;;;;;;5113612;28;20043;-44
2021/04/07 01:18:52;;;;;;;1.92;0.80;;;11.70;71.90;;;;;;5113103;28;20404;-44
2021/04/07 01:21:18;;;;;;;0.93;0.45;;;11.70;71.90;;;;;;5113348;28;20127;-41
2021/04/07 01:23:45;;;;;;;0.80;0.75;;;11.70;71.80;;;;;;5112984;28;20506;-43
2021/04/07 01:26:12;;;;;;;1.52;0.60;;;11.70;71.80;;;;;;5113607;28;20054;-43
2021/04/07 01:28:38;;;;;;;0.55;0.55;;;11.70;71.90;;;;;;5110521;28;20047;-42
2021/04/07 01:31:04;;;;;;;1.77;0.80;;;11.70;71.90;;;;;;5112818;28;20118;-43
2021/04/07 01:33:30;;;;;;;1.23;1.13;;;11.70;71.90;;;;;;5112807;28;20122;-42
2021/04/07 01:35:55;;;;;;;1.02;0.70;;;11.70;72.50;;;;;;5113311;28;20036;-45
2021/04/07 01:38:22;;;;;;;0.85;0.50;;;11.70;71.90;;;;;;5112660;28;20074;-42
2021/04/07 01:40:49;;;;;;;1.25;0.60;;;11.70;71.80;;;;;;5113021;28;20047;-45
2021/04/07 01:43:17;;;;;;;1.48;0.68;;;11.70;71.90;;;;;;5112996;28;20043;-40
2021/04/07 01:45:45;;;;;;;1.10;0.88;;;11.70;71.80;;;;;;5112831;28;20044;-43
2021/04/07 01:48:13;;;;;;;1.13;0.57;;;11.70;71.90;;;;;;5112570;28;20063;-43
2021/04/07 01:50:41;;;;;;;0.50;0.45;;;11.70;71.90;;;;;;5112527;28;20553;-41
2021/04/07 01:53:11;;;;;;;2.33;0.90;;;11.60;71.80;;;;;;5112265;28;20051;-45
2021/04/07 01:55:37;;;;;;;2.70;0.50;;;11.70;71.90;;;;;;5110173;28;20043;-45
2021/04/07 01:58:03;;;;;;;0.40;0.40;;;11.70;71.90;;;;;;5112455;28;20553;-43
2021/04/07 02:00:29;;;;;;;1.45;0.47;;;11.70;71.90;;;;;;5112810;28;20054;-43
2021/04/07 02:02:55;;;;;;;0.98;0.60;;;11.70;71.90;;;;;;5112569;28;20040;-44
2021/04/07 02:05:21;;;;;;;0.98;0.80;;;11.70;71.90;;;;;;5110861;28;20142;-46
2021/04/07 02:07:47;;;;;;;0.75;0.60;;;11.70;71.90;;;;;;5112448;28;20070;-42
2021/04/07 02:10:13;;;;;;;1.35;0.63;;;11.60;71.80;;;;;;5111717;28;20067;-39
2021/04/07 02:12:39;;;;;;;1.08;0.70;;;11.60;71.90;;;;;;5112262;28;20043;-40
2021/04/07 02:15:15;;;;;;;1.08;0.60;;;11.60;71.80;;;;;;5112793;28;20109;-41
2021/04/07 02:17:41;;;;;;;1.25;0.70;;;11.60;71.90;;;;;;5110491;28;20054;-43
2021/04/07 02:20:08;;;;;;;0.57;0.57;;;11.60;71.90;;;;;;5112698;28;20074;-42
2021/04/07 02:22:34;;;;;;;0.73;0.60;;;11.60;71.90;;;;;;5112136;28;20044;-41
2021/04/07 02:25:00;;;;;;;0.65;0.60;;;11.60;71.90;;;;;;5112458;28;20040;-41
2021/04/07 02:27:26;;;;;;;1.10;0.60;;;11.60;71.90;;;;;;5112723;28;20535;-41
2021/04/07 02:29:56;;;;;;;2.70;0.77;;;11.60;71.90;;;;;;5112028;28;20056;-43
2021/04/07 02:32:23;;;;;;;1.65;0.50;;;11.50;71.80;;;;;;5112433;28;20500;-42
2021/04/07 02:34:50;;;;;;;1.17;0.63;;;11.60;71.90;;;;;;5112061;28;20515;-42
2021/04/07 02:37:18;;;;;;;1.20;0.47;;;11.60;71.90;;;;;;5112643;28;20039;-43
2021/04/07 02:39:45;;;;;;;0.98;0.50;;;11.60;71.90;;;;;;5111772;28;20544;-42
2021/04/07 02:42:11;;;;;;;1.40;0.70;;;11.60;71.90;;;;;;5112430;28;20048;-46
2021/04/07 02:44:39;;;;;;;0.80;0.50;;;11.60;71.90;;;;;;5109647;28;20499;-42
2021/04/07 02:47:06;;;;;;;1.30;0.40;;;11.60;71.90;;;;;;5112569;28;20157;-43
2021/04/07 02:49:33;;;;;;;0.70;0.55;;;11.60;72.60;;;;;;5112368;28;20046;-44
2021/04/07 02:51:59;;;;;;;0.45;0.45;;;11.60;71.90;;;;;;5111853;28;20052;-46
2021/04/07 02:54:25;;;;;;;1.35;0.60;;;11.60;71.90;;;;;;5111838;28;20051;-44
2021/04/07 02:56:51;;;;;;;1.42;0.70;;;11.60;71.90;;;;;;5112029;28;20399;-43
2021/04/07 02:59:18;;;;;;;0.80;0.55;;;11.60;71.90;;;;;;5109719;28;20040;-40
2021/04/07 03:01:44;;;;;;;1.13;0.55;;;11.60;71.90;;;;;;5112176;28;20048;-42
2021/04/07 03:04:10;;;;;;;1.70;0.60;;;11.60;71.90;;;;;;5112225;28;20094;-41
2021/04/07 03:06:36;;;;;;;1.35;0.55;;;11.60;71.90;;;;;;5112115;28;20043;-43
2021/04/07 03:09:03;;;;;;;0.65;0.55;;;11.60;71.90;;;;;;5112481;28;20071;-42
2021/04/07 03:11:29;;;;;;;1.00;0.60;;;11.60;71.90;;;;;;5111334;28;20101;-42
2021/04/07 03:13:55;;;;;;;2.13;0.82;;;11.60;72.60;;;;;;5111880;28;20048;-45
2021/04/07 03:16:21;;;;;;;0.77;0.50;;;11.60;71.90;;;;;;5115900;28;20086;-44
2021/04/07 03:18:47;;;;;;;1.42;0.50;;;11.60;71.90;;;;;;5115842;28;20069;-43
2021/04/07 03:21:12;;;;;;;0.35;0.30;;;11.60;71.90;;;;;;5116263;28;20054;-42
2021/04/07 03:23:38;;;;;;;1.05;0.60;;;11.60;71.90;;;;;;5115558;28;20075;-43
2021/04/07 03:26:04;;;;;;;1.85;0.47;;;11.60;71.90;;;;;;5115262;28;20065;-45
2021/04/07 03:28:30;;;;;;;0.98;0.65;;;11.50;71.90;;;;;;5115450;28;20476;-43
2021/04/07 03:30:56;;;;;;;1.40;0.60;;;11.60;71.90;;;;;;5115695;28;20040;-42
2021/04/07 03:33:24;;;;;;;0.70;0.50;;;11.60;71.90;;;;;;5115118;28;20456;-45
2021/04/07 03:35:51;;;;;;;0.50;0.47;;;11.60;71.90;;;;;;5115416;28;20036;-42
2021/04/07 03:38:18;;;;;;;1.85;0.50;;;11.60;71.90;;;;;;5115377;28;20050;-47
2021/04/07 03:40:44;;;;;;;0.32;0.32;;;11.60;71.90;;;;;;5115311;28;20503;-44
2021/04/07 03:43:11;;;;;;;3.40;0.98;;;11.50;71.90;;;;;;5114887;28;20048;-41
2021/04/07 03:45:40;;;;;;;0.40;0.40;;;11.50;71.90;;;;;;5115149;28;20090;-45
2021/04/07 03:48:09;;;;;;;0.45;0.40;;;11.60;71.90;;;;;;5115325;28;20043;-42
2021/04/07 03:50:36;;;;;;;1.00;0.50;;;11.50;71.90;;;;;;5115217;28;20440;-40
2021/04/07 03:53:02;;;;;;;0.98;0.60;;;11.50;71.90;;;;;;5112864;28;20070;-42
2021/04/07 03:55:28;;;;;;;0.82;0.50;;;11.50;71.80;;;;;;5114968;28;20090;-42
2021/04/07 03:57:53;;;;;;;1.20;0.68;;;11.60;71.90;;;;;;5114338;28;20488;-42
2021/04/07 04:00:20;;;;;;;0.52;0.52;;;11.60;71.90;;;;;;5115252;28;20039;-40
2021/04/07 04:02:45;;;;;;;0.52;0.43;;;11.50;71.90;;;;;;5115137;28;20042;-43
2021/04/07 04:05:11;;;;;;;0.40;0.40;;;11.60;71.90;;;;;;5114972;28;20043;-42
2021/04/07 04:07:37;;;;;;;0.75;0.40;;;11.50;71.90;;;;;;5111946;28;20407;-43
2021/04/07 04:10:03;;;;;;;0.98;0.65;;;11.50;71.90;;;;;;5113166;28;20051;-41
2021/04/07 04:12:29;;;;;;;0.90;0.57;;;11.50;71.80;;;;;;5114578;28;20116;-39
2021/04/07 04:14:55;;;;;;;1.65;0.50;;;11.60;71.90;;;;;;5114690;28;20506;-43
2021/04/07 04:17:21;;;;;;;0.90;0.32;;;11.50;71.90;;;;;;5114417;28;20084;-42
2021/04/07 04:19:49;;;;;;;0.73;0.52;;;11.50;71.90;;;;;;5114770;28;20127;-43
2021/04/07 04:22:15;;;;;;;0.90;0.40;;;11.50;71.90;;;;;;5114391;28;20488;-44
2021/04/07 04:24:42;;;;;;;1.00;0.63;;;11.50;71.90;;;;;;5114583;28;20496;-43
2021/04/07 04:27:08;;;;;;;0.47;0.47;;;11.50;71.90;;;;;;5113433;28;20048;-43
2021/04/07 04:29:35;;;;;;;0.73;0.40;;;11.50;71.90;;;;;;5113802;28;20051;-41
2021/04/07 04:32:01;;;;;;;0.70;0.52;;;11.50;71.90;;;;;;5114460;28;20479;-42
2021/04/07 04:34:27;;;;;;;0.50;0.50;;;11.50;71.90;;;;;;5114635;27;20054;-43
2021/04/07 04:36:53;;;;;;;1.35;0.32;;;11.50;71.90;;;;;;5114210;28;20134;-42
2021/04/07 04:39:19;;;;;;;1.13;0.38;;;11.50;71.90;;;;;;5114391;28;20135;-42
2021/04/07 04:41:44;;;;;;;0.73;0.40;;;11.50;71.90;;;;;;5113716;28;20089;-42
2021/04/07 04:44:10;;;;;;;0.55;0.50;;;11.50;71.90;;;;;;5113533;28;20056;-42
2021/04/07 04:46:36;;;;;;;0.95;0.63;;;11.50;71.90;;;;;;5114055;28;20044;-43
2021/04/07 04:49:02;;;;;;;1.42;0.65;;;11.50;71.90;;;;;;5114012;28;20063;-40
2021/04/07 04:51:29;;;;;;;0.43;0.43;;;11.50;71.90;;;;;;5114047;28;20066;-42
2021/04/07 04:53:54;;;;;;;1.40;0.70;;;11.50;71.90;;;;;;5114115;28;20036;-41
2021/04/07 04:56:20;;;;;;;0.57;0.45;;;11.50;71.90;;;;;;5113426;28;20140;-46
2021/04/07 04:58:46;;;;;;;0.95;0.47;;;11.50;71.90;;;;;;5112742;28;20040;-46
2021/04/07 05:01:12;;;;;;;0.93;0.50;;;11.50;71.90;;;;;;5113788;28;20043;-41
2021/04/07 05:03:38;;;;;;;0.70;0.50;;;11.50;71.90;;;;;;5113751;28;20059;-43
2021/04/07 05:06:04;;;;;;;0.93;0.52;;;11.50;71.90;;;;;;5114186;28;20047;-44
2021/04/07 05:08:29;;;;;;;0.73;0.50;;;11.50;71.90;;;;;;5113940;28;20071;-41
2021/04/07 05:10:58;;;;;;;1.75;0.60;;;11.50;71.90;;;;;;5114080;28;20078;-42
2021/04/07 05:13:24;;;;;;;1.02;0.50;;;11.50;71.90;;;;;;5113777;28;20071;-43
2021/04/07 05:15:50;;;;;;;0.40;0.40;;;11.50;71.90;;;;;;5112948;28;20043;-40
2021/04/07 05:18:17;;;;;;;0.25;0.25;;;11.50;71.90;;;;;;5112974;28;20101;-40
2021/04/07 05:20:43;;;;;;;1.35;0.80;;;11.50;71.90;;;;;;5112098;28;20483;-41
2021/04/07 05:23:10;;;;;;;0.93;0.70;;;11.40;71.80;;;;;;5113142;28;20051;-44
2021/04/07 05:25:37;;;;;;;0.57;0.40;;;11.50;71.90;;;;;;5112913;28;20492;-41
2021/04/07 05:28:06;;;;;;;1.08;0.40;;;11.50;71.90;;;;;;5112876;28;20044;-43
2021/04/07 05:33:19;;;;;;;0.65;0.43;;;11.50;71.90;;;;;;5113795;28;20071;-45
2021/04/07 05:35:44;;;;;;;0.98;0.40;;;11.50;71.90;;;;;;5113902;28;20092;-45
2021/04/07 05:38:10;;;;;;;0.40;0.40;;;11.50;71.90;;;;;;5113557;28;20134;-43
2021/04/07 05:40:36;;;;;;;0.40;0.40;;;11.40;71.90;;;;;;5113177;28;20063;-41
2021/04/07 05:43:04;;;;;;;0.65;0.40;;;11.50;72.00;;;;;;5113343;28;20052;-42
2021/04/07 05:45:31;;;;;;;0.75;0.40;;;11.50;72.00;;;;;;5113411;28;20047;-45
2021/04/07 05:47:56;;;;;;;2.05;0.70;;;11.40;71.90;;;;;;5112670;28;20096;-45
2021/04/07 05:50:22;;;;;;;1.38;0.43;;;11.50;72.00;;;;;;5112997;28;20043;-45
2021/04/07 05:52:52;;;;;;;1.02;0.60;;;11.40;71.90;;;;;;5112309;28;20422;-41
2021/04/07 05:55:19;;;;;;;0.90;0.47;;;11.50;72.00;;;;;;5110900;28;20047;-44
2021/04/07 05:57:59;;;;;;;0.38;0.38;;;11.40;71.90;;;;;;5113016;28;20045;-43
2021/04/07 06:00:25;;;;;;;1.25;0.50;;;11.40;71.90;;;;;;5111332;28;20476;-43
2021/04/07 06:03:02;;;;;;;0.52;0.43;;;11.50;72.00;;;;;;5112245;28;20055;-43
2021/04/07 06:05:28;;;;;;;0.85;0.50;;;11.50;72.00;;;;;;5112954;28;20043;-42
2021/04/07 06:07:55;;;;;;;0.98;0.60;;;11.50;72.00;;;;;;5112826;28;20049;-42
2021/04/07 06:10:20;;;;;;;0.90;0.63;;;11.50;72.00;;;;;;5113162;28;20100;-44
2021/04/07 06:12:47;;;;;;;1.45;0.50;;;11.40;71.90;;;;;;5112814;28;20044;-44
2021/04/07 06:15:13;;;;;;;0.88;0.57;;;11.40;71.90;;;;;;5112881;28;20078;-45
2021/04/07 06:17:41;;;;;;;0.47;0.30;;;11.40;71.90;;;;;;5112757;28;20143;-44
2021/04/07 06:20:08;;;;;;;0.50;0.38;;;11.40;71.90;;;;;;5112808;28;20050;-47
2021/04/07 06:22:35;;;;;;;0.82;0.40;;;11.40;71.90;;;;;;5112470;28;20543;-41
2021/04/07 06:25:01;;;;;;;1.45;0.52;;;11.40;71.90;;;;;;5112964;28;20075;-41
2021/04/07 06:27:27;;;;;;;0.65;0.45;;;11.40;71.90;;;;;;5113250;28;20071;-43
2021/04/07 06:29:54;;;;;;;0.77;0.55;;;11.40;71.90;;;;;;5113321;28;20460;-44
2021/04/07 06:32:22;;;;;;;0.43;0.40;;;11.50;72.00;;;;;;5111892;28;20044;-40
2021/04/07 06:34:48;;;;;;;0.47;0.25;;;11.40;72.00;;;;;;5112351;28;20052;-43
2021/04/07 06:37:14;;;;;;;0.40;0.40;;;11.50;72.00;;;;;;5112878;28;20099;-42
2021/04/07 06:39:39;;;;;;;1.13;0.70;;;11.50;72.00;;;;;;5113316;28;20043;-42
2021/04/07 06:42:07;;;;;;;0.75;0.60;;;11.50;72.00;;;;;;5113121;28;20449;-43
2021/04/07 06:44:34;;;;;;;0.75;0.43;;;11.40;71.90;;;;;;5113149;28;20055;-43
2021/04/07 06:47:01;;;;;;;1.20;0.40;;;11.40;71.90;;;;;;5112466;28;20036;-45
2021/04/07 06:49:27;;;;;;;1.70;0.47;;;11.50;72.00;;;;;;5113260;28;20120;-46
2021/04/07 06:51:55;;;;;;;0.43;0.38;;;11.40;71.90;;;;;;5116852;28;20055;-42
2021/04/07 06:54:22;;;;;;;0.55;0.50;;;11.40;72.00;;;;;;5116910;27;20480;-43
2021/04/07 06:56:49;;;;;;;0.70;0.63;;;11.40;72.10;;;;;;5116604;28;20055;-46
2021/04/07 06:59:15;;;;;;;1.85;0.52;;;11.50;72.50;;;;;;5116985;28;20097;-43
2021/04/07 07:01:41;;;;;;;1.13;0.55;;;11.40;72.60;;;;;;5116565;28;20047;-42
2021/04/07 07:04:07;;;;;;;0.50;0.45;;;11.40;72.80;;;;;;5115755;28;21391;-41
2021/04/07 07:06:34;;;;;;;1.52;0.50;;;11.40;73.10;;;;;;5113082;28;20159;-42
2021/04/07 07:09:10;;;;;;;1.23;0.50;;;11.40;73.30;;;;;;5116553;28;20070;-41
2021/04/07 07:11:36;;;;;;;2.08;0.50;;;11.50;73.50;;;;;;5114040;28;20043;-42
2021/04/07 07:14:02;;;;;;;1.27;0.60;;;11.40;73.60;;;;;;5116301;28;20040;-42
2021/04/07 07:16:28;;;;;;;0.28;0.28;;;11.40;73.60;;;;;;5115988;28;20423;-42
2021/04/07 07:18:54;;;;;;;0.43;0.40;;;11.40;73.70;;;;;;5116060;28;20047;-42
2021/04/07 07:21:21;;;;;;;0.90;0.55;;;11.40;73.80;;;;;;5115905;28;20056;-42
2021/04/07 07:23:48;;;;;;;1.08;0.43;;;11.40;73.80;;;;;;5115743;28;20047;-40
2021/04/07 07:26:19;;;;;;;0.88;0.52;;;11.40;73.80;;;;;;5116445;28;20039;-43
2021/04/07 07:28:58;;;;;;;4.65;1.10;;;11.40;73.70;;;;;;5116319;28;20484;-41
2021/04/07 07:31:31;;;;;;;3.25;1.30;;;11.30;73.10;;;;;;5116433;28;20126;-41
2021/04/07 07:33:58;;;;;;;7.13;1.30;;;11.30;73.40;;;;;;5116151;28;20043;-41
2021/04/07 07:36:25;;;;;;;5.50;1.30;;;11.30;73.40;;;;;;5115999;28;20048;-41
2021/04/07 07:38:54;;;;;;;3.47;1.50;;;11.30;73.50;;;;;;5116315;28;20048;-41
2021/04/07 07:41:24;;;;;;;4.97;1.50;;;11.30;73.50;;;;;;5115948;28;20507;-37
2021/04/07 07:43:51;;;;;;;4.78;1.67;;;11.30;73.40;;;;;;5115851;28;20051;-39
2021/04/07 07:46:22;;;;;;;3.88;1.58;;;11.30;73.30;;;;;;5116126;28;20047;-39
2021/04/07 07:48:48;;;;;;;6.35;2.08;;;11.30;73.20;;;;;;5116080;28;20194;-39
2021/04/07 07:51:25;;;;;;;3.97;1.55;;;11.30;73.10;;;;;;5115465;28;20096;-41
2021/04/07 07:53:53;;;;;;;5.85;1.15;;;11.30;73.00;;;;;;5115226;28;20522;-40
2021/04/07 07:56:21;;;;;;;4.38;1.52;;;11.30;72.90;;;;;;5115373;28;20080;-40
2021/04/07 07:58:49;;;;;;;5.93;1.83;;;11.30;72.80;;;;;;5115655;28;20066;-39
2021/04/07 08:01:17;;;;;;;5.25;1.58;;;11.30;72.70;;;;;;5115521;28;20044;-39
2021/04/07 08:03:44;;;;;;;8.25;1.95;;;11.30;73.20;;;;;;5115260;28;20043;-40
2021/04/07 08:06:10;;;;;;;8.98;1.80;;;11.30;72.50;;;;;;5115159;28;20441;-42
2021/04/07 08:08:36;;;;;;;5.78;1.83;;;11.30;72.40;;;;;;5115424;28;20093;-39
2021/04/07 08:11:04;;;;;;;7.20;1.90;;;11.30;72.30;;;;;;5115583;28;20063;-42
2021/04/07 08:13:38;;;;;;;6.40;1.83;;;11.30;72.20;;;;;;5115065;28;20513;-41
2021/04/07 08:16:06;;;;;;;10.95;4.00;;;11.20;72.10;;;;;;5115214;28;20051;-41
2021/04/07 08:18:33;;;;;;;8.15;2.17;;;11.30;72.00;;;;;;5114648;28;20035;-42
2021/04/07 08:20:59;;;;;;;6.22;1.95;;;11.20;71.70;;;;;;5114864;28;20095;-44
2021/04/07 08:23:28;;;;;;;8.23;2.00;;;11.20;71.70;;;;;;5113960;27;20431;-41
2021/04/07 08:25:55;;;;;;;8.18;2.15;;;11.20;71.70;;;;;;5114716;28;20134;-43
2021/04/07 08:28:23;;;;;;;8.88;2.42;;;11.20;72.00;;;;;;5114330;28;20135;-44
2021/04/07 08:30:52;;;;;;;6.15;1.80;;;11.20;72.10;;;;;;5115103;28;20101;-43
2021/04/07 08:33:19;;;;;;;6.93;2.20;;;11.20;72.20;;;;;;5114802;28;20035;-44
2021/04/07 08:35:45;;;;;;;6.93;2.17;;;11.20;72.40;;;;;;5115042;28;20507;-40
2021/04/07 08:38:11;;;;;;;6.43;2.08;;;11.20;72.50;;;;;;5114465;28;20035;-40
2021/04/07 08:40:42;;;;;;;6.50;2.05;;;11.10;72.60;;;;;;5114811;28;20134;-40
2021/04/07 08:43:11;;;;;;;9.73;2.22;;;11.30;72.80;;;;;;5114593;28;20043;-40
2021/04/07 08:45:45;;;;;;;6.70;2.35;;;11.20;72.90;;;;;;5114972;28;20051;-40
2021/04/07 08:48:19;;;;;;;4.80;1.95;;;11.30;73.10;;;;;;5114667;28;20040;-42
2021/04/07 08:50:47;;;;;;;5.20;1.70;;;11.30;73.20;;;;;;5114585;28;20039;-40
2021/04/07 08:53:15;;;;;;;4.63;1.85;;;11.30;73.20;;;;;;5114306;28;20043;-39
2021/04/07 08:55:50;;;;;;;7.10;2.10;;;11.30;73.40;;;;;;5113979;28;20047;-39
2021/04/07 08:58:26;;;;;;;4.97;1.95;;;11.30;73.40;;;;;;5114722;28;20055;-41
2021/04/07 09:00:54;;;;;;;5.95;2.17;;;11.30;73.60;;;;;;5114520;28;20122;-40
2021/04/07 09:03:25;;;;;;;3.72;1.30;;;11.30;73.70;;;;;;5114227;28;20071;-39
2021/04/07 09:05:52;;;;;;;4.65;1.83;;;11.40;73.80;;;;;;5113112;28;20488;-38
2021/04/07 09:08:21;;;;;;;3.13;1.70;;;11.30;73.70;;;;;;5113477;28;20051;-39
2021/04/07 09:10:52;;;;;;;3.03;1.42;;;11.40;73.90;;;;;;5113616;28;20430;-41
2021/04/07 09:13:28;;;;;;;3.75;2.25;;;11.40;73.90;;;;;;5113153;28;20050;-41
2021/04/07 09:16:06;;;;;;;4.38;2.05;;;11.40;73.90;;;;;;5113848;28;20043;-41
2021/04/07 09:18:40;;;;;;;4.35;1.95;;;11.30;73.90;;;;;;5113643;28;20043;-42
2021/04/07 09:21:20;;;;;;;7.68;1.60;;;11.40;74.00;;;;;;5105588;28;20051;-38
2021/04/07 09:23:55;;;;;;;3.92;1.50;;;11.40;74.10;;;;;;5108867;28;20055;-38
2021/04/07 09:26:24;;;;;;;5.65;2.08;;;11.40;74.20;;;;;;5111224;28;20052;-40
2021/04/07 09:28:51;;;;;;;4.38;2.10;;;11.40;74.30;;;;;;5111767;28;20039;-36
2021/04/07 09:31:25;;;;;;;4.65;1.27;;;11.40;74.30;;;;;;5112632;28;20479;-39
2021/04/07 09:33:53;;;;;;;4.72;1.65;;;11.40;74.50;;;;;;5112576;28;20118;-39
2021/04/07 09:36:34;;;;;;;2.92;1.38;;;11.40;74.50;;;;;;5112591;28;20055;-40
2021/04/07 09:39:11;;;;;;;7.68;1.90;;;11.50;74.60;;;;;;5111154;28;20421;-42
2021/04/07 09:41:42;;;;;;;3.97;1.95;;;11.50;74.80;;;;;;5110737;28;20043;-38
2021/04/07 09:44:09;;;;;;;7.70;2.10;;;11.50;74.80;;;;;;5110978;28;20051;-40
2021/04/07 09:46:36;;;;;;;5.10;1.63;;;11.50;74.90;;;;;;5110505;28;20043;-38
2021/04/07 09:49:10;;;;;;;3.80;1.58;;;11.50;75.00;;;;;;5111193;28;20044;-40
2021/04/07 09:51:37;;;;;;;4.78;1.58;;;11.50;75.10;;;;;;5111412;28;20131;-40
2021/04/07 09:54:19;;;;;;;4.25;1.27;;;11.50;75.20;;;;;;5112537;28;20046;-39
2021/04/07 09:56:54;;;;;;;3.08;1.30;;;11.50;75.20;;;;;;5111141;28;20043;-41
2021/04/07 09:59:39;;;;;;;5.55;2.05;;;11.50;75.30;;;;;;5110550;28;20059;-39
2021/04/07 10:02:24;;;;;;;3.33;1.17;;;11.50;75.40;;;;;;5111710;28;20043;-41
2021/04/07 10:04:54;;;;;;;5.43;1.52;;;11.60;75.40;;;;;;5112831;28;20066;-43
2021/04/07 10:07:25;;;;;;;3.83;1.27;;;11.50;75.40;;;;;;5112789;28;20123;-42
2021/04/07 10:09:51;;;;;;;4.68;1.60;;;11.50;75.60;;;;;;5112486;28;20036;-41
2021/04/07 10:12:19;;;;;;;3.83;1.75;;;11.60;75.70;;;;;;5112200;28;20050;-41
2021/04/07 10:14:50;;;;;;;4.40;2.03;;;11.60;75.70;;;;;;5112687;28;20126;-42
2021/04/07 10:17:18;;;;;;;6.45;1.40;;;11.60;75.70;;;;;;5110720;28;20043;-42
2021/04/07 10:19:45;;;;;;;5.05;1.48;;;11.60;75.70;;;;;;5112335;28;20039;-40
2021/04/07 10:22:15;;;;;;;2.33;1.20;;;11.60;75.60;;;;;;5113018;28;20096;-38
2021/04/07 10:24:42;;;;;;;3.65;1.30;;;11.60;75.60;;;;;;5114291;28;20044;-39
2021/04/07 10:27:09;;;;;;;3.53;1.30;;;11.60;75.60;;;;;;5117228;28;20047;-42
2021/04/07 10:29:35;;;;;;;3.42;1.10;;;11.60;75.60;;;;;;5117417;28;20044;-41
2021/04/07 10:32:00;;;;;;;2.72;1.23;;;11.60;75.50;;;;;;5117422;28;20044;-41
2021/04/07 10:34:34;;;;;;;3.58;1.83;;;11.60;75.40;;;;;;5117293;28;20047;-43
2021/04/07 10:37:02;;;;;;;4.80;1.50;;;11.60;75.40;;;;;;5116813;28;20043;-39
2021/04/07 10:39:39;;;;;;;5.10;1.60;;;11.60;75.40;;;;;;5101439;28;20048;-43
2021/04/07 10:42:18;;;;;;;2.80;1.00;;;11.60;75.30;;;;;;5117049;28;20047;-39
2021/04/07 10:45:03;;;;;;;3.22;1.38;;;11.60;75.30;;;;;;5116842;27;20104;-42
2021/04/07 10:47:34;;;;;;;;;;;11.60;75.20;;;;;;5115443;28;20101;-39
2021/04/07 10:49:59;;;;;;;4.00;1.40;;;11.60;74.90;;;;;;5116277;28;19926;-41
2021/04/07 10:52:33;;;;;;;2.38;1.27;;;11.60;75.00;;;;;;5116057;28;20118;-41
2021/04/07 10:55:01;;;;;;;2.92;0.93;;;11.60;75.00;;;;;;5116489;28;20108;-40
2021/04/07 10:57:31;;;;;;;3.42;1.00;;;11.60;74.90;;;;;;5116089;28;20506;-41
2021/04/07 10:59:58;;;;;;;1.30;0.85;;;11.60;74.90;;;;;;5106715;28;20495;-40
2021/04/07 11:02:24;;;;;;;2.88;0.98;;;11.70;75.50;;;;;;5099482;28;20040;-43
2021/04/07 11:04:49;;;;;;;1.73;1.00;;;11.70;74.80;;;;;;5113938;28;20053;-38
2021/04/07 11:07:18;;;;;;;2.55;1.10;;;11.70;74.80;;;;;;5100991;28;20126;-39
2021/04/07 11:09:50;;;;;;;2.28;1.30;;;11.70;74.70;;;;;;5110944;28;20048;-40
2021/04/07 11:12:18;;;;;;;3.88;1.20;;;11.70;74.60;;;;;;5110345;28;20043;-38
2021/04/07 11:14:52;;;;;;;3.22;1.42;;;11.70;74.50;;;;;;5110024;28;20039;-40
2021/04/07 11:17:19;;;;;;;4.32;1.30;;;11.70;74.40;;;;;;5110934;28;20043;-39
2021/04/07 11:19:46;;;;;;;3.13;0.95;;;11.70;74.30;;;;;;5109748;28;20112;-41
2021/04/07 11:22:12;;;;;;;2.85;1.15;;;11.70;74.20;;;;;;5110556;28;20043;-40
2021/04/07 11:24:37;;;;;;;3.05;1.48;;;11.70;74.10;;;;;;5109488;28;20047;-39
2021/04/07 11:27:07;;;;;;;2.50;1.30;;;11.70;74.10;;;;;;5110319;28;20066;-41
2021/04/07 11:29:37;;;;;;;3.38;1.10;;;11.70;74.00;;;;;;5109755;28;20062;-39
2021/04/07 11:32:04;;;;;;;2.13;0.88;;;11.70;74.00;;;;;;5110418;28;20108;-40
2021/04/07 11:34:38;;;;;;;2.33;1.15;;;11.70;73.90;;;;;;5110695;28;20407;-39
2021/04/07 11:37:21;;;;;;;1.95;1.02;;;11.70;73.80;;;;;;5109840;28;20403;-40
2021/04/07 11:39:58;;;;;;;4.18;1.55;;;11.70;73.80;;;;;;5109834;28;20506;-41
2021/04/07 11:42:30;;;;;;;3.47;1.20;;;11.70;73.70;;;;;;5110601;27;20138;-40
2021/04/07 11:44:57;;;;;;;2.22;0.85;;;11.70;73.60;;;;;;5110101;28;20452;-38
2021/04/07 11:47:23;;;;;;;3.22;1.40;;;11.70;73.60;;;;;;5110270;28;20388;-42
2021/04/07 11:49:49;;;;;;;5.20;1.55;;;11.70;73.50;;;;;;5109719;28;20058;-39
2021/04/07 11:52:14;;;;;;;4.13;1.33;;;11.70;73.50;;;;;;5110147;28;20059;-40
2021/04/07 11:54:41;;;;;;;1.48;0.90;;;11.80;73.50;;;;;;5109807;28;20051;-39
2021/04/07 11:57:07;;;;;;;3.13;1.00;;;11.80;73.40;;;;;;5110688;28;20089;-40
2021/04/07 11:59:33;;;;;;;1.90;1.10;;;11.80;73.40;;;;;;5109988;27;20495;-38
2021/04/07 12:02:01;;;;;;;3.22;1.45;;;11.70;73.30;;;;;;5107983;28;20052;-46
2021/04/07 12:04:28;;;;;;;2.38;0.93;;;11.80;73.30;;;;;;5110089;28;20051;-39
2021/04/07 12:06:55;;;;;;;1.30;0.90;;;11.80;73.30;;;;;;5109793;28;20113;-39
2021/04/07 12:09:21;;;;;;;2.00;0.88;;;11.80;73.20;;;;;;5110554;28;20128;-43
2021/04/07 12:11:47;;;;;;;1.75;0.90;;;11.80;73.20;;;;;;5109599;28;20146;-38
2021/04/07 12:14:13;;;;;;;2.70;1.00;;;11.80;73.10;;;;;;5110008;28;20047;-41
2021/04/07 12:16:39;;;;;;;4.65;0.90;;;11.80;73.10;;;;;;5107057;28;20055;-44
2021/04/07 12:19:06;;;;;;;1.40;0.82;;;11.80;73.10;;;;;;5110085;28;20122;-44
2021/04/07 12:21:32;;;;;;;3.45;0.90;;;11.80;73.00;;;;;;5110073;28;20052;-42
2021/04/07 12:23:58;;;;;;;3.35;1.33;;;11.80;73.00;;;;;;5109765;28;20052;-41
2021/04/07 12:26:24;;;;;;;2.33;1.05;;;11.80;72.90;;;;;;5110042;28;20155;-42
2021/04/07 12:28:50;;;;;;;3.20;1.23;;;11.80;72.90;;;;;;5109568;28;20040;-40
2021/04/07 12:31:20;;;;;;;0.82;0.65;;;11.80;72.90;;;;;;5109934;28;20044;-40
2021/04/07 12:33:51;;;;;;;1.55;1.05;;;11.80;72.80;;;;;;5109437;28;20089;-40
2021/04/07 12:36:17;;;;;;;2.33;0.95;;;11.80;72.80;;;;;;5109929;28;20122;-42
2021/04/07 12:38:43;;;;;;;0.63;0.60;;;11.80;72.80;;;;;;5109925;28;20048;-41
2021/04/07 12:43:51;;;;;;;2.05;0.82;;;11.80;72.70;;;;;;5109337;28;20043;-43
2021/04/07 12:46:17;;;;;;;3.13;0.80;;;11.80;72.70;;;;;;5109485;28;20044;-43
2021/04/07 12:48:47;;;;;;;2.58;0.82;;;11.80;72.60;;;;;;5108614;28;20075;-46
2021/04/07 12:51:17;;;;;;;1.63;0.88;;;11.80;72.70;;;;;;5109592;28;20047;-44
2021/04/07 12:53:43;;;;;;;1.63;0.90;;;11.80;72.60;;;;;;5109353;28;20747;-42
2021/04/07 12:56:13;;;;;;;3.05;1.00;;;11.80;73.30;;;;;;5109622;28;20035;-42